TAF and METAR

METAR for Norne Oil Field

ENNE 181250Z 24018KT 7000 FEW015 BKN030 07/06 Q1031 W///S4
Report created 18. apr 14:50
wind 18 knots from WSW (240°) visibility 7000 meters some clouds (~25% cover) at 1500 feet broken clouds (~75% cover) at 3000 feet Temperature 7° with dewpoint at 6° (Humidity 93.35%) Pressure 1031 hPa

TAF for Norne Oil Field

TAF ENNE 181100Z 1812/1817 23022KT 9999 FEW015 BKN060 PROB30 TEMPO 1812/1814 BKN014
Report created 18. apr 13:00

between 18. apr 14:00 - 18. apr 19:00

wind 22 knots from SW (230°) visibility > 10km some clouds (~25% cover) at 1500 feet broken clouds (~75% cover) at 6000 feet

probably (~30%) temporarily between 18. apr 14:00 - 18. apr 16:00

broken clouds (~75% cover) at 1400 feet
Norne Oil Field in Norway at 10m

Latest 5 airports